Time;durP1;ratioP1;P1;durP2;ratioP2;P2;SDS_P1;SDS_P2;PMS_P1;PMS_P2;Temp;Humidity;BMP_temperature;BMP_pressure;BME280_temperature;BME280_humidity;BME280_pressure;Samples;Min_cycle;Max_cycle;Signal;HPM_P1;HPM_P2
2021/09/19 00:02:14;;;;;;;6.70;5.57;;;13.40;99.90;;;;;;5098184;28;20258;-77
2021/09/19 00:04:43;;;;;;;6.53;5.90;;;13.40;99.90;;;;;;5095525;28;20298;-75
2021/09/19 00:07:11;;;;;;;8.00;5.82;;;13.30;99.90;;;;;;5094989;28;20635;-77
2021/09/19 00:09:39;;;;;;;7.20;5.78;;;13.30;99.90;;;;;;5095143;28;20184;-76
2021/09/19 00:12:07;;;;;;;8.20;6.50;;;13.30;99.90;;;;;;5095263;28;20292;-75
2021/09/19 00:14:36;;;;;;;6.97;6.28;;;13.30;99.90;;;;;;5095265;28;20267;-76
2021/09/19 00:17:05;;;;;;;8.13;6.65;;;13.30;99.90;;;;;;5094951;28;20291;-76
2021/09/19 00:19:33;;;;;;;8.67;6.40;;;13.30;99.90;;;;;;5094687;28;20215;-76
2021/09/19 00:22:02;;;;;;;8.80;6.70;;;13.40;99.90;;;;;;5094850;28;20291;-77
2021/09/19 00:24:30;;;;;;;8.07;6.40;;;13.30;99.90;;;;;;5095026;28;20200;-76
2021/09/19 00:26:59;;;;;;;8.00;7.17;;;13.30;99.90;;;;;;5094507;28;20624;-77
2021/09/19 00:29:27;;;;;;;7.32;6.30;;;13.30;99.90;;;;;;5094932;28;20209;-75
2021/09/19 00:31:55;;;;;;;7.38;6.47;;;13.30;99.90;;;;;;5094757;28;20745;-76
2021/09/19 00:34:23;;;;;;;9.57;6.63;;;13.30;99.90;;;;;;5094552;28;20242;-77
2021/09/19 00:36:51;;;;;;;7.67;6.30;;;13.30;99.90;;;;;;5094785;28;20563;-78
2021/09/19 00:39:20;;;;;;;8.00;6.85;;;13.30;99.90;;;;;;5094713;28;20306;-77
2021/09/19 00:41:48;;;;;;;7.88;6.25;;;13.20;99.90;;;;;;5094411;28;20306;-77
2021/09/19 00:44:16;;;;;;;7.45;6.30;;;13.30;99.90;;;;;;5094660;28;20559;-79
2021/09/19 00:46:44;;;;;;;8.50;5.57;;;13.30;99.90;;;;;;5094493;28;20294;-77
2021/09/19 00:49:11;;;;;;;7.43;5.63;;;13.30;99.90;;;;;;5094806;28;20202;-75
2021/09/19 00:51:44;;;;;;;7.85;5.68;;;13.30;99.90;;;;;;5094629;28;20278;-75
2021/09/19 00:54:12;;;;;;;9.32;5.63;;;13.30;99.90;;;;;;5094471;28;20184;-76
2021/09/19 00:56:41;;;;;;;7.80;6.00;;;13.30;99.90;;;;;;5093957;28;20617;-77
2021/09/19 00:59:10;;;;;;;6.33;5.30;;;13.30;99.90;;;;;;5094299;28;20303;-77
2021/09/19 01:01:38;;;;;;;5.70;5.10;;;13.30;99.90;;;;;;5093800;28;20216;-77
2021/09/19 01:04:07;;;;;;;7.33;5.20;;;13.30;99.90;;;;;;5094238;28;20200;-76
2021/09/19 01:06:36;;;;;;;7.40;5.80;;;13.30;99.90;;;;;;5093915;28;20652;-75
2021/09/19 01:09:04;;;;;;;7.03;5.70;;;13.30;99.90;;;;;;5093714;28;20591;-76
2021/09/19 01:11:32;;;;;;;6.30;5.43;;;13.20;99.90;;;;;;5093838;28;20218;-75
2021/09/19 01:14:02;;;;;;;6.07;5.47;;;13.20;99.90;;;;;;5094104;28;20200;-76
2021/09/19 01:16:30;;;;;;;6.77;5.50;;;13.20;99.90;;;;;;5093682;28;20220;-76
2021/09/19 01:19:00;;;;;;;6.17;5.30;;;13.20;99.90;;;;;;5094008;28;20284;-76
2021/09/19 01:21:28;;;;;;;5.60;5.10;;;13.30;99.90;;;;;;5093850;28;20243;-77
2021/09/19 01:23:59;;;;;;;6.50;5.03;;;13.20;99.90;;;;;;5093758;28;20239;-76
2021/09/19 01:26:28;;;;;;;7.83;5.60;;;13.10;99.90;;;;;;5093498;28;20678;-74
2021/09/19 01:28:57;;;;;;;6.03;5.43;;;13.10;99.90;;;;;;5093821;28;20196;-76
2021/09/19 01:31:25;;;;;;;7.17;5.30;;;13.10;99.90;;;;;;5093803;28;20219;-75
2021/09/19 01:33:54;;;;;;;6.20;5.60;;;13.10;99.90;;;;;;5093597;28;20203;-78
2021/09/19 01:36:22;;;;;;;5.57;5.00;;;13.10;99.90;;;;;;5094114;28;20219;-77
2021/09/19 01:38:50;;;;;;;7.60;5.50;;;13.20;99.90;;;;;;5093645;28;20200;-76
2021/09/19 01:41:20;;;;;;;7.37;5.50;;;13.20;99.90;;;;;;5093416;28;20258;-77
2021/09/19 01:43:53;;;;;;;6.97;5.17;;;13.20;99.90;;;;;;5093188;28;20629;-77
2021/09/19 01:46:21;;;;;;;7.10;5.57;;;13.10;99.90;;;;;;5093151;28;20287;-77
2021/09/19 01:48:49;;;;;;;6.10;5.33;;;13.10;99.90;;;;;;5093369;28;20238;-75
2021/09/19 01:51:17;;;;;;;6.25;5.05;;;13.10;99.90;;;;;;5093529;28;20265;-76
2021/09/19 01:53:48;;;;;;;7.50;5.67;;;13.20;99.90;;;;;;5093089;28;20738;-76
2021/09/19 01:56:16;;;;;;;6.47;5.37;;;13.10;99.90;;;;;;5093208;28;20282;-77
2021/09/19 01:58:48;;;;;;;6.53;5.77;;;13.10;99.90;;;;;;5092994;28;20210;-76
2021/09/19 02:01:17;;;;;;;6.20;5.60;;;13.10;99.90;;;;;;5093297;28;20206;-76
2021/09/19 02:03:45;;;;;;;5.95;5.35;;;13.10;99.90;;;;;;5093120;28;20202;-76
2021/09/19 02:06:13;;;;;;;5.63;5.03;;;13.10;99.90;;;;;;5093127;28;20295;-76
2021/09/19 02:08:41;;;;;;;6.20;5.10;;;13.10;99.90;;;;;;5092832;28;20239;-77
2021/09/19 02:11:11;;;;;;;7.73;5.17;;;13.00;99.90;;;;;;5092926;28;20200;-77
2021/09/19 02:13:43;;;;;;;5.80;4.80;;;13.00;99.90;;;;;;5092455;28;20628;-75
2021/09/19 02:16:14;;;;;;;5.43;4.93;;;12.90;99.90;;;;;;5093025;28;20287;-75
2021/09/19 02:18:42;;;;;;;8.13;5.27;;;13.00;99.90;;;;;;5092890;28;20192;-76
2021/09/19 02:21:11;;;;;;;5.17;4.53;;;12.90;99.90;;;;;;5092833;28;20308;-76
2021/09/19 02:23:39;;;;;;;5.90;4.57;;;13.00;99.90;;;;;;5092916;28;20304;-76
2021/09/19 02:26:08;;;;;;;6.60;4.67;;;13.00;99.90;;;;;;5092768;28;20334;-76
2021/09/19 02:28:36;;;;;;;5.27;4.63;;;12.80;99.90;;;;;;5092541;28;20203;-76
2021/09/19 02:31:04;;;;;;;6.20;4.50;;;12.80;99.90;;;;;;5092608;28;20674;-75
2021/09/19 02:33:34;;;;;;;5.97;3.83;;;12.70;99.90;;;;;;5092677;28;20200;-75
2021/09/19 02:36:02;;;;;;;4.63;4.07;;;12.70;99.90;;;;;;5092847;28;20224;-76
2021/09/19 02:38:30;;;;;;;5.13;4.07;;;12.70;99.90;;;;;;5092642;28;20574;-75
2021/09/19 02:40:58;;;;;;;5.23;4.03;;;12.60;99.90;;;;;;5092549;28;20307;-74
2021/09/19 02:43:26;;;;;;;5.37;3.73;;;12.60;99.90;;;;;;5092493;28;20290;-76
2021/09/19 02:45:54;;;;;;;5.07;3.90;;;12.60;99.90;;;;;;5092250;28;20204;-76
2021/09/19 02:48:22;;;;;;;5.13;3.93;;;12.60;99.90;;;;;;5092416;28;20200;-76
2021/09/19 02:50:51;;;;;;;6.33;4.13;;;12.70;99.90;;;;;;5092354;28;20648;-75
2021/09/19 02:53:19;;;;;;;6.30;4.07;;;12.70;99.90;;;;;;5092658;28;20203;-76
2021/09/19 02:55:47;;;;;;;4.47;4.07;;;12.70;99.90;;;;;;5092514;28;20319;-76
2021/09/19 02:58:15;;;;;;;6.57;4.17;;;12.70;99.90;;;;;;5092550;28;20204;-76
2021/09/19 03:00:43;;;;;;;6.00;4.43;;;12.60;99.90;;;;;;5092446;28;20281;-75
2021/09/19 03:03:10;;;;;;;5.10;4.20;;;12.60;99.90;;;;;;5092500;28;20204;-76
2021/09/19 03:05:39;;;;;;;4.90;4.40;;;12.70;99.90;;;;;;5092519;28;20204;-75
2021/09/19 03:08:08;;;;;;;5.07;4.07;;;12.60;99.90;;;;;;5092461;28;20410;-78
2021/09/19 03:10:36;;;;;;;4.40;3.85;;;12.50;99.90;;;;;;5092269;28;20291;-77
2021/09/19 03:13:04;;;;;;;4.53;4.10;;;12.60;99.90;;;;;;5092519;28;20203;-77
2021/09/19 03:15:32;;;;;;;5.78;4.07;;;12.50;99.90;;;;;;5092132;28;20204;-75
2021/09/19 03:18:00;;;;;;;4.97;4.47;;;12.60;99.90;;;;;;5092241;28;20204;-78
2021/09/19 03:20:28;;;;;;;5.07;4.30;;;12.50;99.90;;;;;;5092242;28;20207;-77
2021/09/19 03:22:56;;;;;;;4.80;3.97;;;12.40;99.90;;;;;;5092439;28;20250;-78
2021/09/19 03:25:25;;;;;;;6.18;4.50;;;12.40;99.90;;;;;;5095353;28;20287;-77
2021/09/19 03:27:53;;;;;;;4.80;4.00;;;12.30;99.90;;;;;;5096054;28;20295;-75
2021/09/19 03:30:21;;;;;;;5.37;3.93;;;12.10;99.90;;;;;;5096195;28;20291;-77
2021/09/19 03:32:49;;;;;;;4.57;4.07;;;12.10;99.90;;;;;;5096126;28;20294;-76
2021/09/19 03:35:17;;;;;;;5.17;4.13;;;12.10;99.90;;;;;;5096044;28;20195;-76
2021/09/19 03:37:44;;;;;;;5.43;4.50;;;11.90;99.90;;;;;;5096028;28;20291;-75
2021/09/19 03:40:13;;;;;;;5.07;4.47;;;11.90;99.90;;;;;;5096157;28;20295;-77
2021/09/19 03:42:43;;;;;;;6.73;4.33;;;11.80;99.90;;;;;;5095973;28;20220;-76
2021/09/19 03:45:12;;;;;;;7.07;4.57;;;11.70;99.90;;;;;;5096218;28;20321;-77
2021/09/19 03:47:40;;;;;;;5.27;4.33;;;11.70;99.90;;;;;;5096336;28;20291;-75
2021/09/19 03:50:09;;;;;;;6.60;4.57;;;11.70;99.90;;;;;;5095753;28;20655;-76
2021/09/19 03:52:37;;;;;;;6.33;4.77;;;11.70;99.90;;;;;;5095838;28;20277;-76
2021/09/19 03:55:06;;;;;;;5.50;4.30;;;11.70;99.90;;;;;;5095462;28;20666;-75
2021/09/19 03:57:34;;;;;;;4.93;4.43;;;11.60;99.90;;;;;;5096313;28;20251;-76
2021/09/19 04:00:05;;;;;;;5.20;4.40;;;11.50;99.90;;;;;;5095999;28;20198;-76
2021/09/19 04:02:33;;;;;;;6.57;4.40;;;11.40;99.90;;;;;;5095569;28;20295;-76
2021/09/19 04:05:01;;;;;;;5.80;4.60;;;11.40;99.90;;;;;;5095682;28;20196;-76
2021/09/19 04:07:29;;;;;;;5.33;4.83;;;11.30;99.90;;;;;;5095431;28;20632;-75
2021/09/19 04:09:57;;;;;;;5.37;4.87;;;11.30;99.90;;;;;;5095513;28;20240;-75
2021/09/19 04:12:25;;;;;;;5.97;5.00;;;11.20;99.90;;;;;;5095653;28;20198;-76
2021/09/19 04:14:53;;;;;;;5.57;4.63;;;11.20;99.90;;;;;;5095006;28;20743;-76
2021/09/19 04:17:22;;;;;;;5.60;4.93;;;11.20;99.90;;;;;;5095344;28;20204;-76
2021/09/19 04:19:49;;;;;;;6.17;4.57;;;11.10;99.90;;;;;;5095615;28;20302;-76
2021/09/19 04:22:17;;;;;;;7.80;4.77;;;11.10;99.90;;;;;;5095444;28;20220;-77
2021/09/19 04:24:45;;;;;;;7.03;4.57;;;11.20;99.90;;;;;;5095709;28;20197;-76
2021/09/19 04:27:13;;;;;;;5.40;4.43;;;11.20;99.90;;;;;;5095382;28;20235;-76
2021/09/19 04:29:41;;;;;;;7.00;4.53;;;11.40;99.90;;;;;;5094832;28;20723;-75
2021/09/19 04:32:09;;;;;;;4.97;4.47;;;11.40;99.90;;;;;;5094637;28;20295;-75
2021/09/19 04:34:38;;;;;;;6.07;4.23;;;11.50;99.90;;;;;;5094971;28;20299;-76
2021/09/19 04:37:07;;;;;;;6.17;4.00;;;11.50;99.90;;;;;;5094450;28;20203;-75
2021/09/19 04:39:35;;;;;;;5.03;4.40;;;11.60;99.90;;;;;;5094849;28;20205;-76
2021/09/19 04:42:03;;;;;;;5.10;4.60;;;11.50;99.90;;;;;;5094499;28;20574;-75
2021/09/19 04:44:31;;;;;;;6.67;4.40;;;11.50;99.90;;;;;;5094422;28;20767;-76
2021/09/19 04:46:59;;;;;;;5.97;4.53;;;11.60;99.90;;;;;;5094570;28;20309;-75
2021/09/19 04:49:27;;;;;;;4.97;4.47;;;11.60;99.90;;;;;;5095353;28;20243;-77
2021/09/19 04:51:56;;;;;;;6.82;4.38;;;11.60;99.90;;;;;;5095525;28;20291;-75
2021/09/19 04:54:24;;;;;;;6.37;4.47;;;11.60;99.90;;;;;;5094711;28;20678;-76
2021/09/19 04:56:52;;;;;;;5.47;4.70;;;11.70;99.90;;;;;;5094967;28;20282;-76
2021/09/19 04:59:20;;;;;;;5.27;4.40;;;11.70;99.90;;;;;;5095046;28;20295;-75
2021/09/19 05:01:48;;;;;;;5.07;4.43;;;11.70;99.90;;;;;;5094244;28;20251;-78
2021/09/19 05:04:17;;;;;;;5.43;4.20;;;11.70;99.90;;;;;;5094552;28;20200;-76
2021/09/19 05:06:45;;;;;;;8.03;5.13;;;11.80;99.90;;;;;;5094429;28;20286;-76
2021/09/19 05:09:14;;;;;;;5.30;4.40;;;11.80;99.90;;;;;;5094668;28;20286;-76
2021/09/19 05:11:42;;;;;;;5.00;4.50;;;11.80;99.90;;;;;;5094638;28;20290;-77
2021/09/19 05:14:10;;;;;;;4.87;4.30;;;11.80;99.90;;;;;;5094706;28;20565;-77
2021/09/19 05:16:38;;;;;;;5.45;4.53;;;11.80;99.90;;;;;;5094400;28;20291;-75
2021/09/19 05:19:06;;;;;;;4.90;4.50;;;11.80;99.90;;;;;;5094407;28;20223;-76
2021/09/19 05:21:34;;;;;;;6.73;4.27;;;11.90;99.90;;;;;;5094083;28;20202;-75
2021/09/19 05:24:02;;;;;;;5.27;4.60;;;11.90;99.90;;;;;;5094307;28;20209;-76
2021/09/19 05:26:31;;;;;;;5.72;4.53;;;11.90;99.90;;;;;;5094097;28;20295;-75
2021/09/19 05:28:59;;;;;;;5.47;4.73;;;12.00;99.90;;;;;;5094138;28;20202;-75
2021/09/19 05:31:27;;;;;;;5.07;4.30;;;12.20;99.90;;;;;;5094342;28;20626;-76
2021/09/19 05:33:55;;;;;;;5.05;4.32;;;12.30;99.90;;;;;;5094250;28;20200;-76
2021/09/19 05:36:23;;;;;;;5.65;4.78;;;12.40;99.90;;;;;;5093918;28;20213;-76
2021/09/19 05:38:51;;;;;;;5.50;4.45;;;12.40;99.90;;;;;;5093517;28;20306;-77
2021/09/19 05:41:19;;;;;;;6.27;4.53;;;12.30;99.90;;;;;;5093435;28;20691;-77
2021/09/19 05:43:48;;;;;;;6.67;4.40;;;12.40;99.90;;;;;;5093600;28;20216;-76
2021/09/19 05:46:17;;;;;;;5.27;4.20;;;12.30;99.90;;;;;;5093805;28;20638;-78
2021/09/19 05:48:45;;;;;;;4.70;3.80;;;12.40;99.90;;;;;;5092454;28;20227;-76
2021/09/19 05:51:13;;;;;;;5.13;4.20;;;12.40;99.90;;;;;;5093526;28;20238;-76
2021/09/19 05:53:41;;;;;;;4.73;3.70;;;12.40;99.90;;;;;;5093426;28;20197;-77
2021/09/19 05:56:09;;;;;;;4.90;4.27;;;12.40;99.90;;;;;;5093403;28;20196;-75
2021/09/19 05:58:37;;;;;;;6.13;4.60;;;12.40;99.90;;;;;;5093477;28;20294;-75
2021/09/19 06:01:06;;;;;;;5.30;4.40;;;12.40;99.90;;;;;;5093136;28;20689;-76
2021/09/19 06:03:34;;;;;;;5.47;4.03;;;12.40;99.90;;;;;;5093108;28;20573;-77
2021/09/19 06:06:02;;;;;;;4.60;4.20;;;12.40;99.90;;;;;;5093246;28;20200;-75
2021/09/19 06:08:30;;;;;;;4.77;3.97;;;12.50;99.90;;;;;;5093070;28;20327;-78
2021/09/19 06:10:58;;;;;;;4.30;3.90;;;12.50;99.90;;;;;;5092691;28;20644;-77
2021/09/19 06:13:26;;;;;;;5.88;4.07;;;12.50;99.90;;;;;;5093247;28;20196;-76
2021/09/19 06:15:54;;;;;;;5.00;4.28;;;12.50;99.90;;;;;;5093984;28;20206;-75
2021/09/19 06:18:23;;;;;;;4.13;3.73;;;12.50;99.90;;;;;;5092845;28;20208;-75
2021/09/19 06:20:51;;;;;;;5.30;4.43;;;12.50;99.90;;;;;;5092883;28;20666;-77
2021/09/19 06:23:19;;;;;;;5.72;4.13;;;12.50;99.90;;;;;;5093046;28;20223;-75
2021/09/19 06:25:47;;;;;;;4.95;3.70;;;12.50;99.90;;;;;;5092666;28;20298;-76
2021/09/19 06:28:15;;;;;;;6.40;3.93;;;12.50;99.90;;;;;;5093958;28;20295;-77
2021/09/19 06:30:42;;;;;;;4.55;3.63;;;12.60;99.90;;;;;;5092732;28;20228;-76
2021/09/19 06:33:10;;;;;;;4.97;4.07;;;12.60;99.90;;;;;;5092789;28;20605;-76
2021/09/19 06:35:40;;;;;;;7.60;4.10;;;12.70;99.90;;;;;;5092539;28;20210;-76
2021/09/19 06:38:08;;;;;;;4.15;3.75;;;12.60;99.90;;;;;;5093099;28;20307;-76
2021/09/19 06:40:37;;;;;;;4.10;3.67;;;12.60;99.90;;;;;;5093344;28;20195;-77
2021/09/19 06:43:04;;;;;;;4.87;3.80;;;12.70;99.90;;;;;;5092867;28;20226;-77
2021/09/19 06:45:32;;;;;;;4.28;3.58;;;12.60;99.90;;;;;;5092886;28;20200;-76
2021/09/19 06:48:00;;;;;;;5.53;4.00;;;12.60;99.90;;;;;;5092960;28;20200;-76
2021/09/19 06:50:28;;;;;;;3.65;3.22;;;12.70;99.90;;;;;;5092650;28;20295;-75
2021/09/19 06:52:57;;;;;;;4.40;3.93;;;12.70;99.90;;;;;;5092405;28;20232;-75
2021/09/19 06:55:25;;;;;;;3.85;3.47;;;12.70;99.90;;;;;;5092376;28;20226;-75
2021/09/19 06:57:55;;;;;;;4.95;3.50;;;12.80;99.90;;;;;;5092682;28;20204;-77
2021/09/19 07:00:23;;;;;;;4.30;3.42;;;12.80;99.90;;;;;;5095558;28;20199;-76
2021/09/19 07:02:51;;;;;;;4.67;3.33;;;12.80;99.90;;;;;;5096095;28;20309;-77
2021/09/19 07:05:19;;;;;;;4.87;3.20;;;12.80;99.90;;;;;;5097319;28;20200;-77
2021/09/19 07:07:47;;;;;;;5.20;3.50;;;12.80;99.90;;;;;;5096508;28;20326;-77
2021/09/19 07:10:16;;;;;;;3.53;3.20;;;12.80;99.90;;;;;;5096241;28;20286;-77
2021/09/19 07:12:44;;;;;;;4.93;3.50;;;12.80;99.90;;;;;;5096376;28;20210;-76
2021/09/19 07:15:12;;;;;;;3.20;2.88;;;12.80;99.90;;;;;;5096832;28;20295;-76
2021/09/19 07:17:40;;;;;;;4.65;3.50;;;12.80;99.90;;;;;;5096585;28;20228;-77
2021/09/19 07:20:09;;;;;;;7.13;3.33;;;12.80;99.90;;;;;;5096014;28;20256;-77
2021/09/19 07:22:39;;;;;;;5.70;3.40;;;12.80;99.90;;;;;;5095897;28;20290;-65
2021/09/19 07:25:10;;;;;;;4.15;3.22;;;12.90;99.90;;;;;;5095787;28;20195;-65
2021/09/19 07:27:39;;;;;;;4.95;3.15;;;12.80;99.90;;;;;;5095958;28;20206;-66
2021/09/19 07:30:08;;;;;;;3.87;3.50;;;13.00;99.90;;;;;;5096000;28;20200;-65
2021/09/19 07:32:37;;;;;;;4.57;3.03;;;12.90;99.90;;;;;;5095325;28;20291;-64
2021/09/19 07:35:07;;;;;;;4.80;3.25;;;13.00;99.90;;;;;;5092375;28;20643;-65
2021/09/19 07:37:36;;;;;;;3.78;3.28;;;13.10;99.90;;;;;;5095247;28;20207;-67
2021/09/19 07:40:06;;;;;;;4.07;3.38;;;13.10;99.90;;;;;;5094977;28;20239;-66
2021/09/19 07:42:34;;;;;;;4.27;3.20;;;13.10;99.90;;;;;;5095499;28;20283;-65
2021/09/19 07:45:05;;;;;;;3.97;3.30;;;13.20;99.90;;;;;;5095345;28;20319;-64
2021/09/19 07:47:34;;;;;;;3.97;3.40;;;13.10;99.90;;;;;;5095534;28;20184;-64
2021/09/19 07:50:03;;;;;;;4.93;2.93;;;13.10;99.90;;;;;;5095329;28;20200;-64
2021/09/19 07:52:31;;;;;;;4.57;3.10;;;13.00;99.90;;;;;;5095509;28;20250;-66
2021/09/19 07:55:00;;;;;;;3.17;2.88;;;13.00;99.90;;;;;;5095013;28;20253;-66
2021/09/19 07:57:28;;;;;;;3.45;3.15;;;13.10;99.90;;;;;;5095307;28;20294;-65
2021/09/19 07:59:56;;;;;;;3.40;3.10;;;13.20;99.90;;;;;;5095307;28;20211;-66
2021/09/19 08:02:25;;;;;;;4.23;3.30;;;13.20;99.90;;;;;;5095062;28;20200;-65
2021/09/19 08:04:53;;;;;;;3.33;3.00;;;13.40;99.90;;;;;;5095246;28;20224;-67
2021/09/19 08:07:21;;;;;;;5.40;3.00;;;13.50;99.90;;;;;;5094968;28;20234;-65
2021/09/19 08:09:50;;;;;;;3.30;3.00;;;13.60;99.90;;;;;;5095018;28;20298;-64
2021/09/19 08:12:19;;;;;;;3.33;2.78;;;13.60;99.90;;;;;;5093879;28;20691;-65
2021/09/19 08:14:47;;;;;;;5.72;3.15;;;13.60;99.90;;;;;;5094933;28;20279;-65
2021/09/19 08:17:15;;;;;;;3.47;3.03;;;13.70;99.90;;;;;;5094887;28;20328;-66
2021/09/19 08:19:44;;;;;;;5.20;3.03;;;13.50;99.90;;;;;;5094703;28;20547;-65
2021/09/19 08:22:12;;;;;;;3.38;3.08;;;13.60;99.90;;;;;;5094777;28;20244;-65
2021/09/19 08:24:39;;;;;;;3.17;2.80;;;13.70;99.90;;;;;;5094630;28;20231;-65
2021/09/19 08:27:07;;;;;;;3.85;3.05;;;13.70;99.90;;;;;;5094689;28;20295;-65
2021/09/19 08:29:36;;;;;;;3.92;3.30;;;13.60;99.90;;;;;;5094442;28;20663;-66
2021/09/19 08:32:04;;;;;;;3.00;2.70;;;13.40;99.90;;;;;;5094553;28;20196;-65
2021/09/19 08:34:36;;;;;;;3.50;3.05;;;13.50;99.90;;;;;;5094657;28;20200;-65
2021/09/19 08:37:05;;;;;;;2.67;2.47;;;13.60;99.90;;;;;;5094748;28;20203;-65
2021/09/19 08:39:33;;;;;;;6.18;3.13;;;13.60;99.90;;;;;;5094603;28;20296;-65
2021/09/19 08:42:01;;;;;;;4.18;3.13;;;13.60;99.90;;;;;;5093576;28;20747;-66
2021/09/19 08:44:29;;;;;;;5.55;3.20;;;13.60;99.90;;;;;;5092145;28;20307;-65
2021/09/19 08:46:59;;;;;;;3.88;3.38;;;13.60;99.90;;;;;;5087785;28;20250;-66
2021/09/19 08:49:27;;;;;;;3.13;2.80;;;13.60;99.90;;;;;;5093016;28;20664;-65
2021/09/19 08:51:55;;;;;;;3.13;2.83;;;13.80;99.90;;;;;;5094290;28;20300;-66
2021/09/19 08:54:24;;;;;;;4.20;3.50;;;13.80;99.90;;;;;;5094092;28;20196;-64
2021/09/19 08:56:52;;;;;;;3.88;3.33;;;14.00;99.90;;;;;;5093228;28;20256;-65
2021/09/19 08:59:20;;;;;;;4.43;3.22;;;14.00;99.90;;;;;;5093652;28;20200;-65
2021/09/19 09:02:01;;;;;;;3.63;3.20;;;14.10;99.90;;;;;;5094062;28;20200;-65
2021/09/19 09:04:30;;;;;;;4.35;3.28;;;14.20;99.90;;;;;;5093585;28;20220;-64
2021/09/19 09:06:58;;;;;;;5.30;3.20;;;14.40;99.90;;;;;;5093246;28;20203;-65
2021/09/19 09:09:27;;;;;;;3.63;3.15;;;14.40;99.90;;;;;;5093527;28;20200;-65
2021/09/19 09:12:03;;;;;;;5.43;3.35;;;14.50;99.90;;;;;;5093507;28;20278;-64
2021/09/19 09:14:39;;;;;;;3.85;3.35;;;14.50;99.90;;;;;;5093013;28;20660;-65
2021/09/19 09:17:26;;;;;;;4.30;3.60;;;14.70;99.90;;;;;;5093323;28;20214;-66
2021/09/19 09:19:56;;;;;;;4.95;2.80;;;14.80;99.90;;;;;;5093734;28;20857;-65
2021/09/19 09:22:26;;;;;;;3.20;2.90;;;14.90;99.90;;;;;;5093393;28;20204;-65
2021/09/19 09:25:10;;;;;;;4.28;3.50;;;15.00;99.90;;;;;;5092888;28;20251;-65
2021/09/19 09:27:40;;;;;;;2.97;2.60;;;14.80;99.90;;;;;;5093505;28;20194;-64
2021/09/19 09:30:11;;;;;;;2.95;2.60;;;14.90;99.90;;;;;;5092711;28;20190;-64
2021/09/19 09:32:57;;;;;;;3.63;3.30;;;14.90;99.90;;;;;;5093378;28;20271;-65
2021/09/19 09:35:31;;;;;;;3.72;2.85;;;14.80;99.90;;;;;;5092807;28;20543;-65
2021/09/19 09:37:59;;;;;;;3.45;2.80;;;14.80;99.90;;;;;;5093275;28;20271;-64
2021/09/19 09:40:30;;;;;;;3.08;2.72;;;14.70;99.90;;;;;;5092919;28;20234;-67
2021/09/19 09:43:08;;;;;;;4.75;2.88;;;14.70;99.90;;;;;;5093294;28;20275;-64
2021/09/19 09:45:37;;;;;;;6.65;2.53;;;14.70;99.90;;;;;;5092497;28;20553;-65
2021/09/19 09:48:23;;;;;;;3.72;2.70;;;14.70;99.90;;;;;;5092325;28;20297;-65
2021/09/19 09:50:54;;;;;;;3.45;2.47;;;14.70;99.90;;;;;;5093016;28;20184;-65
2021/09/19 09:53:23;;;;;;;3.33;2.80;;;14.70;99.90;;;;;;5093231;28;20298;-65
2021/09/19 09:55:53;;;;;;;3.55;2.78;;;14.70;99.90;;;;;;5092551;28;20228;-65
2021/09/19 09:58:22;;;;;;;3.47;2.78;;;14.70;99.90;;;;;;5092485;28;20180;-65
2021/09/19 10:00:53;;;;;;;5.07;2.72;;;14.70;99.90;;;;;;5092410;28;20231;-65
2021/09/19 10:03:21;;;;;;;3.35;2.63;;;14.50;99.90;;;;;;5091437;28;20207;-66
2021/09/19 10:05:50;;;;;;;3.33;2.63;;;14.50;99.90;;;;;;5092773;28;20219;-67
2021/09/19 10:08:18;;;;;;;4.47;2.88;;;14.60;99.90;;;;;;5092483;28;20231;-65
2021/09/19 10:10:46;;;;;;;3.95;2.85;;;14.70;99.90;;;;;;5092574;28;20200;-65
2021/09/19 10:13:18;;;;;;;3.53;2.50;;;14.80;99.90;;;;;;5092440;28;20200;-65
2021/09/19 10:15:46;;;;;;;2.70;2.50;;;14.70;99.90;;;;;;5092578;28;20219;-67
2021/09/19 10:18:18;;;;;;;3.08;2.78;;;14.60;99.90;;;;;;5092306;28;20636;-66
2021/09/19 10:20:48;;;;;;;3.05;2.55;;;14.60;99.90;;;;;;5092301;28;20252;-66
2021/09/19 10:23:19;;;;;;;2.92;2.58;;;14.50;99.90;;;;;;5092728;28;20191;-66
2021/09/19 10:25:52;;;;;;;3.38;2.63;;;14.50;99.90;;;;;;5092323;28;20296;-65
2021/09/19 10:28:24;;;;;;;3.25;2.63;;;14.50;99.90;;;;;;5092444;28;20195;-66
2021/09/19 10:31:24;;;;;;;3.55;2.90;;;14.40;99.90;;;;;;5092751;28;20291;-64
2021/09/19 10:33:55;;;;;;;3.08;2.45;;;14.30;99.90;;;;;;5091760;28;20218;-66
2021/09/19 10:36:34;;;;;;;3.67;2.70;;;14.40;99.90;;;;;;5092669;28;20550;-66
2021/09/19 10:39:15;;;;;;;3.50;2.72;;;14.40;99.90;;;;;;5092644;28;20195;-65
2021/09/19 10:42:10;;;;;;;2.92;2.63;;;14.40;99.90;;;;;;5092309;28;20188;-66
2021/09/19 10:44:55;;;;;;;3.83;2.80;;;14.40;99.90;;;;;;5092115;28;20188;-66
2021/09/19 10:47:39;;;;;;;3.63;2.63;;;14.50;99.90;;;;;;5072096;28;20292;-66
2021/09/19 10:50:27;;;;;;;4.13;2.80;;;14.50;99.90;;;;;;5072125;28;20664;-66
2021/09/19 10:52:58;;;;;;;3.63;2.58;;;14.70;99.90;;;;;;5072326;28;20267;-67
2021/09/19 10:55:32;;;;;;;2.95;2.55;;;14.90;99.90;;;;;;5071882;28;20299;-67
2021/09/19 10:58:06;;;;;;;3.30;2.65;;;15.10;99.90;;;;;;5071494;28;20192;-66
2021/09/19 11:00:36;;;;;;;2.72;2.53;;;15.30;99.90;;;;;;5072169;28;20283;-65
2021/09/19 11:03:14;;;;;;;3.35;2.78;;;15.50;99.90;;;;;;5071775;28;20601;-65
2021/09/19 11:05:45;;;;;;;2.70;2.50;;;15.70;99.90;;;;;;5071961;28;20221;-66
2021/09/19 11:08:41;;;;;;;2.97;2.60;;;15.80;99.90;;;;;;5071621;28;20282;-66
2021/09/19 11:11:19;;;;;;;3.00;2.60;;;15.70;99.90;;;;;;5071669;28;20348;-67
2021/09/19 11:13:54;;;;;;;3.00;2.22;;;15.60;99.90;;;;;;5071297;28;20626;-66
2021/09/19 11:16:34;;;;;;;3.13;2.63;;;15.60;99.90;;;;;;5085100;28;20226;-67
2021/09/19 11:19:04;;;;;;;3.28;2.97;;;15.60;99.90;;;;;;5091678;28;20184;-64
2021/09/19 11:21:36;;;;;;;3.55;2.78;;;15.60;99.90;;;;;;5092050;28;20257;-64
2021/09/19 11:24:06;;;;;;;2.80;2.58;;;15.70;99.90;;;;;;5091906;28;20185;-66
2021/09/19 11:26:37;;;;;;;2.80;2.60;;;15.70;99.90;;;;;;5091871;28;20204;-66
2021/09/19 11:29:08;;;;;;;4.47;2.58;;;15.90;99.90;;;;;;5091732;28;20187;-67
2021/09/19 11:31:38;;;;;;;2.80;2.60;;;15.90;99.90;;;;;;5091953;28;20270;-66
2021/09/19 11:34:07;;;;;;;2.88;2.42;;;16.00;99.90;;;;;;5091521;28;20200;-67
2021/09/19 11:36:39;;;;;;;3.80;2.90;;;16.10;99.90;;;;;;5091838;28;20271;-66
2021/09/19 11:39:07;;;;;;;3.28;2.63;;;16.10;99.90;;;;;;5091965;28;20203;-66
2021/09/19 11:41:35;;;;;;;3.85;2.67;;;16.10;99.90;;;;;;5091576;28;20706;-66
2021/09/19 11:44:04;;;;;;;3.53;2.78;;;16.00;99.90;;;;;;5091770;28;20227;-65
2021/09/19 11:46:34;;;;;;;3.10;2.75;;;16.00;99.90;;;;;;5092581;28;20665;-66
2021/09/19 11:49:04;;;;;;;3.70;2.65;;;15.80;99.90;;;;;;5095030;28;20531;-66
2021/09/19 11:51:32;;;;;;;3.20;2.60;;;15.40;99.90;;;;;;5095015;28;20625;-66
2021/09/19 11:54:00;;;;;;;3.35;2.53;;;15.30;99.90;;;;;;5094847;28;20624;-65
2021/09/19 11:56:30;;;;;;;3.20;2.72;;;15.20;99.90;;;;;;5094867;28;20201;-64
2021/09/19 11:58:58;;;;;;;3.40;3.10;;;15.00;99.90;;;;;;5094715;28;20240;-65
2021/09/19 12:01:28;;;;;;;3.63;3.00;;;15.00;99.90;;;;;;5094812;28;20206;-66
2021/09/19 12:04:04;;;;;;;3.72;2.75;;;14.90;99.90;;;;;;5094812;28;20269;-66
2021/09/19 12:06:33;;;;;;;3.13;2.70;;;14.90;99.90;;;;;;5094618;28;20203;-66
2021/09/19 12:09:02;;;;;;;3.47;3.10;;;15.00;99.90;;;;;;5094530;28;20247;-65
2021/09/19 12:11:41;;;;;;;3.60;2.55;;;15.00;99.90;;;;;;5094549;28;20227;-64
2021/09/19 12:14:14;;;;;;;3.00;2.70;;;15.10;99.90;;;;;;5094959;28;20375;-65
2021/09/19 12:16:55;;;;;;;2.85;2.60;;;15.10;99.90;;;;;;5094717;28;20214;-65
2021/09/19 12:19:24;;;;;;;3.17;2.88;;;15.10;99.90;;;;;;5094920;28;20538;-64
2021/09/19 12:21:57;;;;;;;4.57;2.70;;;15.20;99.90;;;;;;5094721;28;20236;-64
2021/09/19 12:24:26;;;;;;;3.13;2.85;;;15.30;99.90;;;;;;5094565;28;20659;-65
2021/09/19 12:27:16;;;;;;;4.47;2.60;;;15.40;99.90;;;;;;5094469;28;20226;-65
2021/09/19 12:29:58;;;;;;;2.85;2.60;;;15.50;99.90;;;;;;5094243;28;20556;-65
2021/09/19 12:32:33;;;;;;;4.65;2.90;;;15.70;99.90;;;;;;5094072;28;20275;-65
2021/09/19 12:35:04;;;;;;;5.10;2.90;;;15.80;99.90;;;;;;5094337;28;20261;-64
2021/09/19 12:37:35;;;;;;;3.10;2.80;;;15.90;99.90;;;;;;5093918;28;20626;-64
2021/09/19 12:40:07;;;;;;;3.95;2.90;;;15.80;99.90;;;;;;5094258;28;20211;-65
2021/09/19 12:42:35;;;;;;;4.03;2.85;;;16.00;99.90;;;;;;5094230;28;20593;-65
2021/09/19 12:45:08;;;;;;;3.70;3.00;;;16.20;99.90;;;;;;5094184;28;20235;-65
2021/09/19 12:47:37;;;;;;;4.03;2.80;;;16.20;99.90;;;;;;5093823;28;20296;-64
2021/09/19 12:50:09;;;;;;;3.20;2.63;;;16.30;99.90;;;;;;5093981;28;20226;-65
2021/09/19 12:52:39;;;;;;;4.20;2.58;;;16.20;99.90;;;;;;5093952;28;20696;-65
2021/09/19 12:55:14;;;;;;;3.75;2.75;;;16.30;99.90;;;;;;5094120;28;20188;-65
2021/09/19 12:57:42;;;;;;;3.10;2.90;;;16.30;99.90;;;;;;5093528;28;20184;-65
2021/09/19 13:00:11;;;;;;;5.18;3.25;;;16.30;99.90;;;;;;5093951;28;20299;-65
2021/09/19 13:02:39;;;;;;;3.70;2.95;;;16.10;99.90;;;;;;5093452;28;20200;-65